3J7

Greene County Regional Airport

Greensboro, Georgia, USA
METAR K3J7 180835Z AUTO 00000KT 10SM OVC004 23/22 A3008 RMK AO2
Observed Flight Rules
Aug-18 @ 08:35 UTC (16 minutes ago) Instrument Flight Rules
Visibility Clouds
10 miles
  • Overcast at 400' AGL
Temperatures Readings
Current 23°C / 73°F
Dewpoint 22°C / 72°F
Humidity 94%
Altimeter 30.08" Hg
Pressure 1019 hPa
Elevation 206
METAR K3J7 180835Z AUTO 00000KT 10SM OVC004 23/22 A3008 RMK AO2
Observed Flight Rules
Aug-18 @ 08:35 UTC
(16 minutes ago)
LIFR
Clouds
  • Overcast at 400' AGL
Temperature Dewpoint
23°C / 73°F 22°C / 72°F
Humidity Altimeter Pressure
94% 30.08" Hg 1019 hPa